KACV/ACV METAR and TAF weather

Enter ICAO airport designator
Station Type Date Time Source
KACV METAR 2020/08/14 15:53 UTC NOAA

KACV 141553Z AUTO 00000KT 10SM CLR 18/13 A2993 RMK AO2 SLP140 T01780133


Station Type Date Time Source
KACV Decoded METAR 2020/08/14 15:53 UTC NOAA

ARCATA/EUREKA ARCATA AIRPORT, CA, United States (KACV) 40-59N 124-06W 67M
Aug 14, 2020 - 11:53 AM EDT / 2020.08.14 1553 UTC
Wind: Calm:0
Visibility: 10 mile(s):0
Sky conditions: clear
Temperature: 64.0 F (17.8 C)
Dew Point: 55.9 F (13.3 C)
Relative Humidity: 74%
Pressure (altimeter): 29.93 in. Hg (1013 hPa)
ob: KACV 141553Z AUTO 00000KT 10SM CLR 18/13 A2993 RMK AO2 SLP140 T01780133
cycle: 16

Station Type Date Time Source
KACV TAF 2020/08/14 12:48 UTC NOAA

TAF KACV 141147Z 1412/1512 VRB04KT 6SM BR SCT005
FM141700 VRB05KT P6SM FEW007
FM142100 25006KT P6SM SCT250
FM150300 VRB03KT 6SM BR SCT250
FM150600 00000KT 6SM BR FEW005

Example: see airport list